createdAt,value
2023-04-22T00:00:10.160Z,100.00
2023-04-22T00:02:38.905Z,100.00
2023-04-22T00:05:07.977Z,100.00
2023-04-22T00:07:36.092Z,100.00
2023-04-22T00:10:04.308Z,100.00
2023-04-22T00:12:32.274Z,100.00
2023-04-22T00:15:01.818Z,100.00
2023-04-22T00:17:29.823Z,100.00
2023-04-22T00:19:57.826Z,100.00
2023-04-22T00:22:25.740Z,100.00
2023-04-22T00:24:53.662Z,100.00
2023-04-22T00:27:21.601Z,100.00
2023-04-22T00:29:49.665Z,100.00
2023-04-22T00:32:19.962Z,100.00
2023-04-22T00:34:47.895Z,100.00
2023-04-22T00:37:15.804Z,100.00
2023-04-22T00:39:43.851Z,100.00
2023-04-22T00:42:11.794Z,100.00
2023-04-22T00:44:39.770Z,100.00
2023-04-22T00:47:07.838Z,100.00
2023-04-22T00:49:37.878Z,100.00
2023-04-22T00:52:06.889Z,100.00
2023-04-22T00:54:35.412Z,100.00
2023-04-22T00:57:04.000Z,100.00
2023-04-22T00:59:31.962Z,100.00
2023-04-22T01:01:59.886Z,100.00
2023-04-22T01:04:28.056Z,100.00
2023-04-22T01:06:57.374Z,100.00
2023-04-22T01:09:25.334Z,100.00
2023-04-22T01:11:53.277Z,100.00
2023-04-22T01:14:21.164Z,100.00
2023-04-22T01:16:49.242Z,100.00
2023-04-22T01:19:17.231Z,100.00
2023-04-22T01:21:46.124Z,100.00
2023-04-22T01:24:15.429Z,100.00
2023-04-22T01:26:43.366Z,100.00
2023-04-22T01:29:11.272Z,100.00
2023-04-22T01:31:39.380Z,100.00
2023-04-22T01:34:07.341Z,100.00
2023-04-22T01:36:35.340Z,100.00
2023-04-22T01:39:03.313Z,100.00
2023-04-22T01:41:32.753Z,100.00
2023-04-22T01:44:00.720Z,100.00
2023-04-22T01:46:28.818Z,100.00
2023-04-22T01:48:56.766Z,100.00
2023-04-22T01:51:24.700Z,100.00
2023-04-22T01:53:52.675Z,100.00
2023-04-22T01:56:21.453Z,100.00
2023-04-22T01:58:51.019Z,100.00
2023-04-22T02:01:18.986Z,100.00
2023-04-22T02:03:47.078Z,100.00
2023-04-22T02:06:15.062Z,100.00
2023-04-22T02:08:43.015Z,100.00
2023-04-22T02:11:11.050Z,100.00
2023-04-22T02:13:39.131Z,100.00
2023-04-22T02:16:09.433Z,100.00
2023-04-22T02:18:37.496Z,100.00
2023-04-22T02:21:05.556Z,100.00
2023-04-22T02:23:33.534Z,100.00
2023-04-22T02:26:01.637Z,100.00
2023-04-22T02:28:29.561Z,100.00
2023-04-22T02:30:57.537Z,100.00
2023-04-22T02:33:26.868Z,100.00
2023-04-22T02:35:54.834Z,100.00
2023-04-22T02:38:22.756Z,100.00
2023-04-22T02:40:50.672Z,100.00
2023-04-22T02:43:18.635Z,100.00
2023-04-22T02:45:48.621Z,100.00
2023-04-22T02:48:16.551Z,100.00
2023-04-22T02:50:45.916Z,100.00
2023-04-22T02:53:13.843Z,100.00
2023-04-22T02:55:42.331Z,100.00
2023-04-22T02:58:10.670Z,100.00
2023-04-22T03:00:38.686Z,100.00
2023-04-22T03:03:06.903Z,100.00
2023-04-22T03:05:34.975Z,100.00
2023-04-22T03:08:04.291Z,100.00
2023-04-22T03:10:32.502Z,100.00
2023-04-22T03:13:00.512Z,100.00
2023-04-22T03:15:28.473Z,100.00
2023-04-22T03:17:56.496Z,100.00
2023-04-22T03:20:24.454Z,100.00
2023-04-22T03:22:52.327Z,100.00
2023-04-22T03:25:21.701Z,100.00
2023-04-22T03:27:49.662Z,100.00
2023-04-22T03:30:17.642Z,100.00
2023-04-22T03:32:45.636Z,100.00
2023-04-22T03:35:13.771Z,100.00
2023-04-22T03:37:42.022Z,100.00
2023-04-22T03:40:13.491Z,100.00
2023-04-22T03:42:43.033Z,100.00
2023-04-22T03:45:11.739Z,100.00
2023-04-22T03:47:39.705Z,100.00
2023-04-22T03:50:08.459Z,100.00
2023-04-22T03:52:36.428Z,100.00
2023-04-22T03:55:04.519Z,100.00
2023-04-22T03:57:32.496Z,100.00
2023-04-22T04:00:01.819Z,100.00
2023-04-22T04:02:29.874Z,100.00
2023-04-22T04:04:58.229Z,100.00
2023-04-22T04:07:26.423Z,100.00
2023-04-22T04:09:54.370Z,100.00
2023-04-22T04:12:22.316Z,100.00
2023-04-22T04:14:50.231Z,100.00
2023-04-22T04:17:19.604Z,100.00
2023-04-22T04:19:47.565Z,100.00
2023-04-22T04:22:15.495Z,100.00
2023-04-22T04:24:43.972Z,100.00
2023-04-22T04:27:11.973Z,100.00
2023-04-22T04:29:41.580Z,100.00
2023-04-22T04:32:10.068Z,100.00
2023-04-22T04:34:39.515Z,100.00
2023-04-22T04:37:07.500Z,100.00
2023-04-22T04:39:35.470Z,100.00
2023-04-22T04:42:04.044Z,100.00
2023-04-22T04:44:32.205Z,100.00
2023-04-22T04:47:00.189Z,100.00
2023-04-22T04:49:30.738Z,100.00
2023-04-22T04:52:00.179Z,100.00
2023-04-22T04:54:28.160Z,100.00
2023-04-22T04:56:57.384Z,100.00
2023-04-22T04:59:25.379Z,100.00
2023-04-22T05:01:53.438Z,100.00
2023-04-22T05:04:21.985Z,100.00
2023-04-22T05:06:50.175Z,100.00
2023-04-22T05:09:19.684Z,100.00
2023-04-22T05:11:47.610Z,100.00
2023-04-22T05:14:15.590Z,100.00
2023-04-22T05:16:43.633Z,100.00
2023-04-22T05:19:11.548Z,100.00
2023-04-22T05:21:39.470Z,100.00
2023-04-22T05:24:07.857Z,100.00
2023-04-22T05:26:37.260Z,100.00
2023-04-22T05:29:05.386Z,100.00
2023-04-22T05:31:33.944Z,100.00
2023-04-22T05:34:01.927Z,100.00
2023-04-22T05:36:31.603Z,100.00
2023-04-22T05:38:59.594Z,100.00
2023-04-22T05:41:27.498Z,100.00
2023-04-22T05:43:56.779Z,100.00
2023-04-22T05:46:24.752Z,100.00
2023-04-22T05:48:52.737Z,100.00
2023-04-22T05:51:20.694Z,100.00
2023-04-22T05:53:48.617Z,100.00
2023-04-22T05:56:16.528Z,100.00
2023-04-22T05:58:44.445Z,100.00
2023-04-22T06:01:13.807Z,100.00
2023-04-22T06:03:42.060Z,100.00
2023-04-22T06:06:10.348Z,100.00
2023-04-22T06:08:38.312Z,100.00
2023-04-22T06:11:06.378Z,100.00
2023-04-22T06:13:34.331Z,100.00
2023-04-22T06:16:02.630Z,100.00
2023-04-22T06:18:32.469Z,100.00
2023-04-22T06:21:00.423Z,100.00
2023-04-22T06:23:28.402Z,100.00
2023-04-22T06:25:58.487Z,100.00
2023-04-22T06:28:26.487Z,100.00
2023-04-22T06:30:54.480Z,100.00
2023-04-22T06:33:22.470Z,100.00
2023-04-22T06:35:51.797Z,100.00
2023-04-22T06:38:19.736Z,100.00
2023-04-22T06:40:47.714Z,100.00
2023-04-22T06:43:15.642Z,100.00
2023-04-22T06:45:43.599Z,100.00
2023-04-22T06:48:11.539Z,100.00
2023-04-22T06:50:39.441Z,100.00
2023-04-22T06:53:09.990Z,100.00
2023-04-22T06:55:37.931Z,100.00
2023-04-22T06:58:05.897Z,100.00
2023-04-22T07:00:35.004Z,100.00
2023-04-22T07:03:03.055Z,100.00
2023-04-22T07:05:31.072Z,100.00
2023-04-22T07:07:58.978Z,100.00
2023-04-22T07:10:28.274Z,100.00
2023-04-22T07:12:56.191Z,100.00
2023-04-22T07:15:24.127Z,100.00
2023-04-22T07:17:52.067Z,100.00
2023-04-22T07:20:20.071Z,100.00
2023-04-22T07:22:48.050Z,100.00
2023-04-22T07:25:16.043Z,100.00
2023-04-22T07:27:45.349Z,100.00
2023-04-22T07:30:14.075Z,100.00
2023-04-22T07:32:42.080Z,100.00
2023-04-22T07:35:10.300Z,100.00
2023-04-22T07:37:38.331Z,100.00
2023-04-22T07:40:11.679Z,100.00
2023-04-22T07:42:39.886Z,100.00
2023-04-22T07:45:10.089Z,100.00
2023-04-22T07:47:38.087Z,100.00
2023-04-22T07:50:07.145Z,100.00
2023-04-22T07:52:35.099Z,100.00
2023-04-22T07:55:03.076Z,100.00
2023-04-22T07:57:31.016Z,100.00
2023-04-22T07:59:59.254Z,100.00
2023-04-22T08:02:28.693Z,100.00
2023-04-22T08:04:56.749Z,100.00
2023-04-22T08:09:56.701Z,100.00
2023-04-22T08:12:24.782Z,100.00
2023-04-22T08:14:52.734Z,100.00
2023-04-22T08:17:22.159Z,100.00
2023-04-22T08:19:51.609Z,100.00
2023-04-22T08:22:19.579Z,100.00
2023-04-22T08:24:47.554Z,100.00
2023-04-22T08:27:15.487Z,100.00
2023-04-22T08:29:43.583Z,100.00
2023-04-22T08:32:11.721Z,100.00
2023-04-22T08:34:40.374Z,100.00
2023-04-22T08:37:10.161Z,100.00
2023-04-22T08:39:38.362Z,100.00
2023-04-22T08:42:06.654Z,100.00
2023-04-22T08:44:35.507Z,100.00
2023-04-22T08:47:04.003Z,100.00
2023-04-22T08:49:32.023Z,100.00
2023-04-22T08:52:00.006Z,100.00
2023-04-22T08:54:29.420Z,100.00
2023-04-22T08:56:57.392Z,100.00
2023-04-22T08:59:25.364Z,100.00
2023-04-22T09:01:54.298Z,100.00
2023-04-22T09:04:22.418Z,100.00
2023-04-22T09:06:50.445Z,100.00
2023-04-22T09:09:18.418Z,100.00
2023-04-22T09:11:47.699Z,98.29
2023-04-22T09:14:15.647Z,92.79
2023-04-22T09:16:44.065Z,89.07
2023-04-22T09:19:15.408Z,86.16
2023-04-22T09:21:43.650Z,84.96
2023-04-22T09:24:12.417Z,90.46
2023-04-22T09:26:40.887Z,89.78
2023-04-22T09:29:14.343Z,93.79
2023-04-22T09:31:42.456Z,92.20
2023-04-22T09:34:10.500Z,80.45
2023-04-22T09:36:38.545Z,81.15
2023-04-22T09:39:08.214Z,76.52
2023-04-22T09:41:37.324Z,77.70
2023-04-22T09:44:05.726Z,74.27
2023-04-22T09:46:35.120Z,75.35
2023-04-22T09:49:03.117Z,74.23
2023-04-22T09:51:31.999Z,73.49
2023-04-22T09:54:01.136Z,70.78
2023-04-22T09:56:42.432Z,69.77
2023-04-22T09:59:10.556Z,69.11
2023-04-22T10:01:41.213Z,72.02
2023-04-22T10:04:09.955Z,66.20
2023-04-22T10:06:38.392Z,67.59
2023-04-22T10:09:09.296Z,62.12
2023-04-22T10:11:37.716Z,60.59
2023-04-22T10:14:05.700Z,63.77
2023-04-22T10:16:34.262Z,65.95
2023-04-22T10:19:04.568Z,64.44
2023-04-22T10:21:32.618Z,68.87
2023-04-22T10:24:00.837Z,69.55
2023-04-22T10:26:49.311Z,66.52
2023-04-22T10:29:17.975Z,65.43
2023-04-22T10:31:46.589Z,62.67
2023-04-22T10:34:16.280Z,59.67
2023-04-22T10:36:57.459Z,59.45
2023-04-22T10:39:25.548Z,60.15
2023-04-22T10:41:54.964Z,55.49
2023-04-22T10:44:23.238Z,53.69
2023-04-22T10:46:58.651Z,56.10
2023-04-22T10:49:28.156Z,53.17
2023-04-22T10:51:58.455Z,49.68
2023-04-22T10:54:57.840Z,50.47
2023-04-22T10:57:31.225Z,46.51
2023-04-22T11:00:00.438Z,43.51
2023-04-22T11:02:28.485Z,44.82
2023-04-22T11:05:22.926Z,44.90
2023-04-22T11:07:54.384Z,45.42
2023-04-22T11:10:33.056Z,43.35
2023-04-22T11:13:02.086Z,43.68
2023-04-22T11:15:30.540Z,45.37
2023-04-22T11:17:58.611Z,50.02
2023-04-22T11:20:28.555Z,51.13
2023-04-22T11:22:57.074Z,51.74
2023-04-22T11:25:25.373Z,49.21
2023-04-22T11:27:53.507Z,50.75
2023-04-22T11:30:21.977Z,49.70
2023-04-22T11:32:50.495Z,51.89
2023-04-22T11:35:20.159Z,50.84
2023-04-22T11:37:50.223Z,49.96
2023-04-22T11:40:29.057Z,50.86
2023-04-22T11:42:58.510Z,50.76
2023-04-22T11:45:26.742Z,50.98
2023-04-22T11:47:55.377Z,53.25
2023-04-22T11:50:24.594Z,53.36
2023-04-22T11:52:54.627Z,52.92
2023-04-22T11:55:23.836Z,55.56
2023-04-22T11:57:56.422Z,52.25
2023-04-22T12:00:24.820Z,54.36
2023-04-22T12:03:00.412Z,55.00
2023-04-22T12:05:39.277Z,54.98
2023-04-22T12:08:12.055Z,55.16
2023-04-22T12:10:43.963Z,57.30
2023-04-22T12:13:12.641Z,58.17
2023-04-22T12:15:42.334Z,58.19
2023-04-22T12:18:10.497Z,60.10
2023-04-22T12:20:39.903Z,60.17
2023-04-22T12:23:14.591Z,59.31
2023-04-22T12:25:43.077Z,61.79
2023-04-22T12:28:11.439Z,58.96
2023-04-22T12:30:39.377Z,58.62
2023-04-22T12:33:07.579Z,60.34
2023-04-22T12:35:35.656Z,57.88
2023-04-22T12:38:03.630Z,58.25
2023-04-22T12:40:33.004Z,59.32
2023-04-22T12:43:01.229Z,60.18
2023-04-22T12:45:29.214Z,57.92
2023-04-22T12:47:58.029Z,56.21
2023-04-22T12:50:26.044Z,55.82
2023-04-22T12:52:54.009Z,52.74
2023-04-22T12:55:22.280Z,51.48
2023-04-22T12:57:52.057Z,54.30
2023-04-22T13:00:20.051Z,50.12
2023-04-22T13:02:48.937Z,48.94
2023-04-22T13:05:17.115Z,47.82
2023-04-22T13:07:46.908Z,46.72
2023-04-22T13:10:22.915Z,48.81
2023-04-22T13:12:52.642Z,46.60
2023-04-22T13:15:21.497Z,47.40
2023-04-22T13:17:51.017Z,48.74
2023-04-22T13:20:19.548Z,48.80
2023-04-22T13:22:48.138Z,48.66
2023-04-22T13:25:16.053Z,49.29
2023-04-22T13:27:44.009Z,48.58
2023-04-22T13:30:14.343Z,49.07
2023-04-22T13:32:42.351Z,50.64
2023-04-22T13:35:11.018Z,51.74
2023-04-22T13:37:39.337Z,50.47
2023-04-22T13:40:08.683Z,51.31
2023-04-22T13:42:36.852Z,54.13
2023-04-22T13:45:05.296Z,52.38
2023-04-22T13:47:34.644Z,49.17
2023-04-22T13:50:03.369Z,51.09
2023-04-22T13:52:31.328Z,50.90
2023-04-22T13:54:59.329Z,48.99
2023-04-22T13:57:27.482Z,49.16
2023-04-22T13:59:55.407Z,48.63
2023-04-22T14:02:23.391Z,49.16
2023-04-22T14:04:52.851Z,48.96
2023-04-22T14:07:20.829Z,51.38
2023-04-22T14:09:48.733Z,49.73
2023-04-22T14:12:16.665Z,47.39
2023-04-22T14:14:44.746Z,51.17
2023-04-22T14:17:12.785Z,49.12
2023-04-22T14:19:41.145Z,49.59
2023-04-22T14:22:10.737Z,49.06
2023-04-22T14:24:38.654Z,50.41
2023-04-22T14:27:06.823Z,50.23
2023-04-22T14:29:34.774Z,48.79
2023-04-22T14:32:02.979Z,49.24
2023-04-22T14:34:30.942Z,49.09
2023-04-22T14:36:59.481Z,48.99
2023-04-22T14:39:28.800Z,46.85
2023-04-22T14:41:57.969Z,46.58
2023-04-22T14:44:26.040Z,46.98
2023-04-22T14:46:53.965Z,43.36
2023-04-22T14:49:21.870Z,42.01
2023-04-22T14:51:49.829Z,43.18
2023-04-22T14:54:17.779Z,44.94
2023-04-22T14:56:47.559Z,45.46
2023-04-22T14:59:15.524Z,45.94
2023-04-22T15:01:43.651Z,46.90
2023-04-22T15:04:13.586Z,47.99
2023-04-22T15:06:41.664Z,48.17
2023-04-22T15:09:09.615Z,49.34
2023-04-22T15:11:37.580Z,49.14
2023-04-22T15:14:06.866Z,50.35
2023-04-22T15:16:34.845Z,51.23
2023-04-22T15:19:02.832Z,50.36
2023-04-22T15:21:30.790Z,50.33
2023-04-22T15:23:58.737Z,51.38
2023-04-22T15:26:26.682Z,51.80
2023-04-22T15:28:54.638Z,54.20
2023-04-22T15:31:24.037Z,56.35
2023-04-22T15:33:52.068Z,55.73
2023-04-22T15:36:21.659Z,57.20
2023-04-22T15:38:49.721Z,58.62
2023-04-22T15:41:17.646Z,58.34
2023-04-22T15:43:45.700Z,58.37
2023-04-22T15:46:14.681Z,59.86
2023-04-22T15:48:47.187Z,60.41
2023-04-22T15:51:15.207Z,62.50
2023-04-22T15:53:45.356Z,62.12
2023-04-22T15:56:13.346Z,62.21
2023-04-22T15:58:41.334Z,63.07
2023-04-22T16:01:18.935Z,62.96
2023-04-22T16:03:49.371Z,64.59
2023-04-22T16:06:18.120Z,66.73
2023-04-22T16:08:46.489Z,69.78
2023-04-22T16:11:15.296Z,70.09
2023-04-22T16:13:43.247Z,68.55
2023-04-22T16:16:11.321Z,70.30
2023-04-22T16:18:39.982Z,72.30
2023-04-22T16:21:11.380Z,71.90
2023-04-22T16:23:39.332Z,72.55
2023-04-22T16:26:07.278Z,74.08
2023-04-22T16:28:35.262Z,75.53
2023-04-22T16:31:03.414Z,78.03
2023-04-22T16:33:31.412Z,82.41
2023-04-22T16:35:59.724Z,86.42
2023-04-22T16:38:29.008Z,88.06
2023-04-22T16:40:56.963Z,90.37
2023-04-22T16:43:24.939Z,91.99
2023-04-22T16:45:52.986Z,94.58
2023-04-22T16:48:20.965Z,96.18
2023-04-22T16:50:49.016Z,99.17
2023-04-22T16:53:16.961Z,100.00
2023-04-22T16:55:46.303Z,100.00
2023-04-22T16:58:14.272Z,100.00
2023-04-22T17:00:42.254Z,100.00
2023-04-22T17:03:12.051Z,100.00
2023-04-22T17:05:40.285Z,100.00
2023-04-22T17:08:08.609Z,100.00
2023-04-22T17:10:41.394Z,100.00
2023-04-22T17:13:10.756Z,100.00
2023-04-22T17:15:38.807Z,100.00
2023-04-22T17:18:07.957Z,100.00
2023-04-22T17:20:36.011Z,100.00
2023-04-22T17:23:04.090Z,100.00
2023-04-22T17:25:32.165Z,100.00
2023-04-22T17:28:00.158Z,100.00
2023-04-22T17:30:29.440Z,100.00
2023-04-22T17:32:57.488Z,100.00
2023-04-22T17:35:25.508Z,100.00
2023-04-22T17:37:53.766Z,100.00
2023-04-22T17:40:22.016Z,100.00
2023-04-22T17:42:50.017Z,100.00
2023-04-22T17:45:17.943Z,100.00
2023-04-22T17:47:48.562Z,100.00
2023-04-22T17:50:16.639Z,100.00
2023-04-22T17:52:44.675Z,100.00
2023-04-22T17:55:12.610Z,100.00
2023-04-22T17:57:40.909Z,100.00
2023-04-22T18:00:11.126Z,100.00
2023-04-22T18:02:39.216Z,100.00
2023-04-22T18:05:09.364Z,100.00
2023-04-22T18:07:37.293Z,100.00
2023-04-22T18:10:05.832Z,100.00
2023-04-22T18:12:33.766Z,100.00
2023-04-22T18:15:01.747Z,100.00
2023-04-22T18:17:29.667Z,100.00
2023-04-22T18:20:06.331Z,100.00
2023-04-22T18:22:43.737Z,100.00
2023-04-22T18:25:11.662Z,100.00
2023-04-22T18:27:39.644Z,100.00
2023-04-22T18:30:08.617Z,100.00
2023-04-22T18:32:37.336Z,100.00
2023-04-22T18:35:06.135Z,100.00
2023-04-22T18:37:34.813Z,100.00
2023-04-22T18:40:05.851Z,100.00
2023-04-22T18:42:33.763Z,100.00
2023-04-22T18:45:04.242Z,100.00
2023-04-22T18:47:32.657Z,100.00
2023-04-22T18:50:00.956Z,100.00
2023-04-22T18:52:28.914Z,100.00
2023-04-22T18:54:56.901Z,100.00
2023-04-22T18:57:26.553Z,100.00
2023-04-22T18:59:55.038Z,100.00
2023-04-22T19:02:23.063Z,100.00
2023-04-22T19:04:51.249Z,100.00
2023-04-22T19:07:19.234Z,100.00
2023-04-22T19:09:47.159Z,100.00
2023-04-22T19:12:16.729Z,100.00
2023-04-22T19:14:47.193Z,100.00
2023-04-22T19:17:15.158Z,100.00
2023-04-22T19:19:43.506Z,100.00
2023-04-22T19:22:12.476Z,100.00
2023-04-22T19:24:40.421Z,100.00
2023-04-22T19:27:12.488Z,100.00
2023-04-22T19:29:41.576Z,100.00
2023-04-22T19:32:11.643Z,100.00
2023-04-22T19:34:39.650Z,100.00
2023-04-22T19:37:08.340Z,100.00
2023-04-22T19:39:36.733Z,100.00
2023-04-22T19:42:04.835Z,100.00
2023-04-22T19:44:32.810Z,100.00
2023-04-22T19:47:00.922Z,100.00
2023-04-22T19:49:32.486Z,100.00
2023-04-22T19:52:00.406Z,100.00
2023-04-22T19:54:28.974Z,100.00
2023-04-22T19:56:57.997Z,100.00
2023-04-22T19:59:28.056Z,100.00
2023-04-22T20:01:56.420Z,100.00
2023-04-22T20:04:25.219Z,100.00
2023-04-22T20:06:54.676Z,100.00
2023-04-22T20:09:22.665Z,100.00
2023-04-22T20:11:50.612Z,100.00
2023-04-22T20:14:18.567Z,100.00
2023-04-22T20:16:47.902Z,100.00
2023-04-22T20:19:16.217Z,100.00
2023-04-22T20:21:44.158Z,100.00
2023-04-22T20:24:19.054Z,100.00
2023-04-22T20:26:47.897Z,100.00
2023-04-22T20:29:15.884Z,100.00
2023-04-22T20:31:44.163Z,100.00
2023-04-22T20:34:13.132Z,100.00
2023-04-22T20:36:41.077Z,100.00
2023-04-22T20:39:10.794Z,100.00
2023-04-22T20:41:41.015Z,100.00
2023-04-22T20:44:09.302Z,100.00
2023-04-22T20:46:37.889Z,100.00
2023-04-22T20:49:05.919Z,100.00
2023-04-22T20:51:33.897Z,100.00
2023-04-22T20:54:01.825Z,100.00
2023-04-22T20:56:29.814Z,100.00
2023-04-22T20:58:59.163Z,100.00
2023-04-22T21:01:27.521Z,100.00
2023-04-22T21:03:57.714Z,100.00
2023-04-22T21:06:26.348Z,100.00
2023-04-22T21:08:54.358Z,100.00
2023-04-22T21:11:22.782Z,100.00
2023-04-22T21:13:51.043Z,100.00
2023-04-22T21:16:20.698Z,100.00
2023-04-22T21:18:48.695Z,100.00
2023-04-22T21:21:17.178Z,100.00
2023-04-22T21:23:45.644Z,100.00
2023-04-22T21:26:13.601Z,100.00
2023-04-22T21:28:42.137Z,100.00
2023-04-22T21:31:11.090Z,100.00
2023-04-22T21:33:40.452Z,100.00
2023-04-22T21:36:08.472Z,100.00
2023-04-22T21:38:36.409Z,100.00
2023-04-22T21:41:04.338Z,100.00
2023-04-22T21:43:32.399Z,100.00
2023-04-22T21:46:01.034Z,100.00
2023-04-22T21:48:29.045Z,100.00
2023-04-22T21:50:58.352Z,100.00
2023-04-22T21:53:26.351Z,100.00
2023-04-22T21:55:54.297Z,100.00
2023-04-22T21:58:22.325Z,100.00
2023-04-22T22:00:50.302Z,100.00
2023-04-22T22:03:18.322Z,100.00
2023-04-22T22:05:46.349Z,100.00
2023-04-22T22:08:15.678Z,100.00
2023-04-22T22:10:44.014Z,100.00
2023-04-22T22:13:11.958Z,100.00
2023-04-22T22:15:39.924Z,100.00
2023-04-22T22:18:07.900Z,100.00
2023-04-22T22:20:36.656Z,100.00
2023-04-22T22:23:04.593Z,100.00
2023-04-22T22:25:33.890Z,100.00
2023-04-22T22:28:01.910Z,100.00
2023-04-22T22:30:30.086Z,100.00
2023-04-22T22:32:58.078Z,100.00
2023-04-22T22:35:25.988Z,100.00
2023-04-22T22:37:53.902Z,100.00
2023-04-22T22:40:21.921Z,100.00
2023-04-22T22:42:51.290Z,100.00
2023-04-22T22:45:19.245Z,100.00
2023-04-22T22:47:47.232Z,100.00
2023-04-22T22:50:15.600Z,100.00
2023-04-22T22:52:43.574Z,100.00
2023-04-22T22:55:11.929Z,100.00
2023-04-22T22:57:39.861Z,100.00
2023-04-22T23:00:11.967Z,100.00
2023-04-22T23:02:40.000Z,100.00
2023-04-22T23:05:10.920Z,100.00
2023-04-22T23:07:39.002Z,100.00
2023-04-22T23:10:08.298Z,100.00
2023-04-22T23:12:36.436Z,100.00
2023-04-22T23:15:04.710Z,100.00
2023-04-22T23:17:34.101Z,100.00
2023-04-22T23:20:02.412Z,100.00
2023-04-22T23:22:30.814Z,100.00
2023-04-22T23:24:59.226Z,100.00
2023-04-22T23:27:27.743Z,100.00
2023-04-22T23:29:56.194Z,100.00
2023-04-22T23:32:26.552Z,100.00
2023-04-22T23:34:56.085Z,100.00
2023-04-22T23:37:24.032Z,100.00
2023-04-22T23:39:51.995Z,100.00
2023-04-22T23:42:19.952Z,100.00
2023-04-22T23:44:47.928Z,100.00
2023-04-22T23:47:15.867Z,100.00
2023-04-22T23:49:43.784Z,100.00
2023-04-22T23:52:14.152Z,100.00
2023-04-22T23:54:44.686Z,100.00
2023-04-22T23:57:13.250Z,100.00
2023-04-22T23:59:41.722Z,100.00
